createdAt,value
2023-02-21T00:01:09.420Z,92.51
2023-02-21T00:02:11.621Z,92.40
2023-02-21T00:11:43.741Z,92.01
2023-02-21T00:21:17.174Z,91.97
2023-02-21T00:30:48.880Z,92.75
2023-02-21T00:40:19.309Z,93.02
2023-02-21T00:49:51.773Z,95.03
2023-02-21T00:59:27.264Z,97.53
2023-02-21T01:08:56.724Z,99.09
2023-02-21T01:18:29.376Z,100.00
2023-02-21T01:28:02.793Z,100.00
2023-02-21T01:37:37.789Z,100.00
2023-02-21T01:47:09.300Z,100.00
2023-02-21T01:56:40.942Z,99.95
2023-02-21T02:06:12.177Z,100.00
2023-02-21T02:15:44.950Z,100.00
2023-02-21T02:25:19.598Z,100.00
2023-02-21T02:34:51.057Z,100.00
2023-02-21T02:44:24.128Z,100.00
2023-02-21T02:53:57.560Z,100.00
2023-02-21T03:03:31.228Z,100.00
2023-02-21T03:13:02.531Z,100.00
2023-02-21T03:22:35.488Z,100.00
2023-02-21T03:32:07.214Z,100.00
2023-02-21T03:41:41.108Z,100.00
2023-02-21T03:51:13.022Z,100.00
2023-02-21T04:00:45.592Z,100.00
2023-02-21T04:10:18.441Z,100.00
2023-02-21T04:19:51.590Z,100.00
2023-02-21T04:29:27.865Z,100.00
2023-02-21T04:38:55.832Z,100.00
2023-02-21T04:48:29.992Z,100.00
2023-02-21T04:58:01.364Z,100.00
2023-02-21T05:07:34.711Z,100.00
2023-02-21T05:17:07.954Z,100.00
2023-02-21T05:26:42.524Z,100.00
2023-02-21T05:36:15.286Z,100.00
2023-02-21T05:45:50.835Z,100.00
2023-02-21T05:55:24.674Z,100.00
2023-02-21T06:04:58.121Z,100.00
2023-02-21T06:14:29.943Z,100.00
2023-02-21T06:24:03.280Z,100.00
2023-02-21T06:33:38.009Z,100.00
2023-02-21T06:43:11.129Z,100.00
2023-02-21T06:52:45.856Z,100.00
2023-02-21T07:02:16.021Z,100.00
2023-02-21T07:11:49.484Z,100.00
2023-02-21T07:21:23.461Z,100.00
2023-02-21T07:30:58.544Z,100.00
2023-02-21T07:40:30.476Z,100.00
2023-02-21T07:50:05.505Z,100.00
2023-02-21T07:59:38.107Z,100.00
2023-02-21T08:09:12.936Z,100.00
2023-02-21T08:10:17.519Z,100.00
2023-02-21T08:19:48.339Z,100.00
2023-02-21T08:29:22.218Z,100.00
2023-02-21T08:38:56.337Z,100.00
2023-02-21T08:48:30.880Z,100.00
2023-02-21T08:58:05.133Z,100.00
2023-02-21T09:07:41.291Z,100.00
2023-02-21T09:17:14.326Z,100.00
2023-02-21T09:26:50.508Z,100.00
2023-02-21T09:36:23.167Z,97.66
2023-02-21T09:45:58.015Z,93.67
2023-02-21T09:47:00.500Z,92.99
2023-02-21T09:56:34.443Z,91.38
2023-02-21T09:57:38.541Z,91.67
2023-02-21T09:58:40.901Z,91.89
2023-02-21T09:59:43.351Z,92.01
2023-02-21T10:00:46.921Z,91.57
2023-02-21T10:01:48.202Z,90.18
2023-02-21T10:02:50.695Z,90.17
2023-02-21T10:03:54.786Z,90.75
2023-02-21T10:04:57.128Z,90.99
2023-02-21T10:05:59.456Z,90.79
2023-02-21T10:07:01.913Z,89.40
2023-02-21T10:08:04.389Z,89.27
2023-02-21T10:09:06.832Z,89.06
2023-02-21T10:10:09.288Z,88.73
2023-02-21T10:11:13.590Z,88.11
2023-02-21T10:12:17.313Z,88.17
2023-02-21T10:13:19.704Z,88.55
2023-02-21T10:14:22.133Z,88.30
2023-02-21T10:15:26.147Z,87.87
2023-02-21T10:24:56.965Z,86.92
2023-02-21T10:25:59.516Z,86.98
2023-02-21T10:27:02.041Z,87.13
2023-02-21T10:28:04.580Z,87.18
2023-02-21T10:37:39.223Z,84.47
2023-02-21T10:38:41.593Z,84.36
2023-02-21T10:39:43.942Z,84.57
2023-02-21T10:40:46.392Z,83.86
2023-02-21T10:41:48.911Z,83.99
2023-02-21T10:42:51.412Z,83.60
2023-02-21T10:43:53.850Z,83.77
2023-02-21T10:44:57.927Z,84.06
2023-02-21T10:46:00.324Z,84.64
2023-02-21T10:47:02.770Z,84.21
2023-02-21T10:48:05.212Z,83.06
2023-02-21T10:49:09.312Z,82.51
2023-02-21T10:50:11.547Z,82.50
2023-02-21T10:51:14.365Z,83.12
2023-02-21T10:52:16.478Z,83.23
2023-02-21T10:53:18.974Z,82.80
2023-02-21T10:54:23.042Z,83.14
2023-02-21T10:55:32.964Z,81.87
2023-02-21T10:56:29.266Z,82.16
2023-02-21T11:06:03.320Z,81.31
2023-02-21T11:07:07.251Z,81.13
2023-02-21T11:08:09.634Z,80.94
2023-02-21T11:09:12.090Z,80.83
2023-02-21T11:10:16.151Z,80.58
2023-02-21T11:11:18.515Z,80.36
2023-02-21T11:12:20.914Z,80.53
2023-02-21T11:13:24.952Z,79.55
2023-02-21T11:14:27.295Z,79.66
2023-02-21T11:15:31.040Z,79.48
2023-02-21T11:16:33.456Z,80.02
2023-02-21T11:17:35.991Z,78.92
2023-02-21T11:18:38.375Z,78.27
2023-02-21T11:19:42.414Z,78.97
2023-02-21T11:20:46.307Z,78.63
2023-02-21T11:21:48.814Z,78.36
2023-02-21T11:22:51.130Z,77.94
2023-02-21T11:23:55.184Z,78.99
2023-02-21T11:24:59.184Z,77.60
2023-02-21T11:26:01.487Z,77.00
2023-02-21T11:27:05.492Z,77.41
2023-02-21T11:28:07.814Z,76.69
2023-02-21T11:29:12.393Z,76.02
2023-02-21T11:30:14.623Z,76.04
2023-02-21T11:31:17.425Z,76.14
2023-02-21T11:32:19.453Z,77.11
2023-02-21T11:33:23.493Z,75.33
2023-02-21T11:34:25.876Z,75.85
2023-02-21T11:35:28.324Z,76.12
2023-02-21T11:36:30.788Z,76.00
2023-02-21T11:46:02.148Z,78.86
2023-02-21T11:47:04.547Z,78.96
2023-02-21T11:48:07.013Z,78.71
2023-02-21T11:49:09.514Z,78.78
2023-02-21T11:50:12.966Z,78.81
2023-02-21T11:51:15.737Z,78.88
2023-02-21T11:52:17.782Z,78.81
2023-02-21T11:53:20.220Z,78.24
2023-02-21T11:54:22.615Z,77.94
2023-02-21T11:55:26.438Z,78.28
2023-02-21T11:56:27.518Z,77.09
2023-02-21T11:57:31.786Z,76.46
2023-02-21T11:58:35.754Z,77.04
2023-02-21T11:59:38.050Z,76.96
2023-02-21T12:00:40.476Z,76.82
2023-02-21T12:01:43.155Z,76.78
2023-02-21T12:02:45.573Z,76.84
2023-02-21T12:03:48.030Z,75.99
2023-02-21T12:04:50.532Z,76.50
2023-02-21T12:05:52.983Z,76.37
2023-02-21T12:06:55.421Z,77.10
2023-02-21T12:07:57.998Z,76.92
2023-02-21T12:09:00.380Z,75.95
2023-02-21T12:10:02.789Z,76.80
2023-02-21T12:11:05.216Z,75.77
2023-02-21T12:12:09.212Z,74.88
2023-02-21T12:13:11.532Z,76.87
2023-02-21T12:14:14.012Z,75.35
2023-02-21T12:15:16.565Z,75.30
2023-02-21T12:16:19.023Z,75.96
2023-02-21T12:17:21.592Z,75.26
2023-02-21T12:18:24.018Z,76.27
2023-02-21T12:19:29.351Z,74.93
2023-02-21T12:20:33.140Z,74.04
2023-02-21T12:21:37.062Z,73.97
2023-02-21T12:22:41.548Z,74.34
2023-02-21T12:23:41.855Z,73.71
2023-02-21T12:24:45.901Z,74.09
2023-02-21T12:25:49.814Z,74.74
2023-02-21T12:26:52.086Z,74.37
2023-02-21T12:27:54.544Z,73.78
2023-02-21T12:28:57.080Z,74.74
2023-02-21T12:30:01.131Z,73.51
2023-02-21T12:31:03.566Z,73.73
2023-02-21T12:32:07.828Z,73.09
2023-02-21T12:33:11.547Z,73.13
2023-02-21T12:34:13.795Z,73.38
2023-02-21T12:35:16.246Z,72.78
2023-02-21T12:36:18.725Z,73.16
2023-02-21T12:37:21.138Z,73.22
2023-02-21T12:38:25.210Z,72.66
2023-02-21T12:39:29.112Z,72.69
2023-02-21T12:40:31.395Z,72.08
2023-02-21T12:41:35.444Z,73.06
2023-02-21T12:42:37.745Z,73.43
2023-02-21T12:43:40.180Z,73.02
2023-02-21T12:44:42.521Z,73.53
2023-02-21T12:45:46.615Z,72.01
2023-02-21T12:46:49.089Z,72.30
2023-02-21T12:47:51.481Z,72.95
2023-02-21T12:48:53.936Z,72.16
2023-02-21T12:49:56.403Z,71.76
2023-02-21T12:50:58.986Z,71.74
2023-02-21T12:52:01.268Z,71.49
2023-02-21T12:53:03.798Z,71.26
2023-02-21T12:54:06.118Z,71.83
2023-02-21T12:55:08.509Z,72.32
2023-02-21T12:56:12.503Z,72.94
2023-02-21T12:57:19.207Z,72.13
2023-02-21T12:58:23.159Z,71.32
2023-02-21T12:59:25.359Z,71.65
2023-02-21T13:00:27.816Z,71.19
2023-02-21T13:01:30.264Z,71.66
2023-02-21T13:02:32.784Z,70.79
2023-02-21T13:03:35.151Z,70.86
2023-02-21T13:04:39.201Z,70.44
2023-02-21T13:05:41.560Z,70.51
2023-02-21T13:15:13.944Z,71.55
2023-02-21T13:16:16.461Z,72.15
2023-02-21T13:17:18.944Z,71.79
2023-02-21T13:18:21.484Z,70.37
2023-02-21T13:19:23.905Z,70.44
2023-02-21T13:20:28.004Z,71.41
2023-02-21T13:21:30.418Z,70.18
2023-02-21T13:22:32.860Z,70.09
2023-02-21T13:23:35.235Z,69.89
2023-02-21T13:24:37.681Z,68.85
2023-02-21T13:25:41.654Z,69.93
2023-02-21T13:26:44.028Z,68.21
2023-02-21T13:27:46.480Z,69.40
2023-02-21T13:28:50.495Z,69.20
2023-02-21T13:29:54.465Z,68.82
2023-02-21T13:30:58.457Z,69.16
2023-02-21T13:32:00.613Z,68.43
2023-02-21T13:33:04.673Z,66.90
2023-02-21T13:34:08.576Z,67.04
2023-02-21T13:35:10.888Z,66.96
2023-02-21T13:36:13.235Z,68.94
2023-02-21T13:37:15.692Z,67.38
2023-02-21T13:38:18.178Z,67.06
2023-02-21T13:39:20.663Z,66.23
2023-02-21T13:40:23.152Z,66.07
2023-02-21T13:41:25.564Z,66.52
2023-02-21T13:42:28.028Z,67.68
2023-02-21T13:43:30.464Z,68.32
2023-02-21T13:44:33.935Z,66.74
2023-02-21T13:45:36.305Z,66.89
2023-02-21T13:46:38.923Z,65.44
2023-02-21T13:47:41.186Z,65.91
2023-02-21T13:48:43.526Z,65.84
2023-02-21T13:49:45.933Z,66.55
2023-02-21T13:50:48.459Z,67.33
2023-02-21T13:51:52.485Z,68.64
2023-02-21T13:52:54.788Z,65.63
2023-02-21T13:53:57.300Z,66.38
2023-02-21T13:55:01.303Z,66.26
2023-02-21T13:56:08.553Z,66.75
2023-02-21T13:57:12.322Z,64.94
2023-02-21T13:58:16.339Z,65.32
2023-02-21T13:59:20.220Z,64.55
2023-02-21T14:00:22.469Z,65.59
2023-02-21T14:01:27.832Z,65.02
2023-02-21T14:02:28.820Z,65.72
2023-02-21T14:03:31.251Z,66.41
2023-02-21T14:04:33.742Z,67.22
2023-02-21T14:05:36.180Z,65.29
2023-02-21T14:06:40.284Z,66.57
2023-02-21T14:07:42.704Z,65.60
2023-02-21T14:08:45.097Z,65.62
2023-02-21T14:09:47.714Z,66.59
2023-02-21T14:10:51.951Z,66.78
2023-02-21T14:11:54.354Z,66.56
2023-02-21T14:12:58.364Z,67.23
2023-02-21T14:14:00.692Z,67.46
2023-02-21T14:15:03.200Z,67.92
2023-02-21T14:16:05.651Z,66.94
2023-02-21T14:17:08.071Z,67.52
2023-02-21T14:18:10.566Z,65.65
2023-02-21T14:19:14.610Z,66.29
2023-02-21T14:20:17.004Z,66.34
2023-02-21T14:21:19.457Z,65.00
2023-02-21T14:22:21.909Z,65.79
2023-02-21T14:23:24.502Z,66.07
2023-02-21T14:24:26.945Z,65.69
2023-02-21T14:25:29.376Z,64.22
2023-02-21T14:26:31.830Z,64.55
2023-02-21T14:27:34.289Z,64.62
2023-02-21T14:28:38.500Z,65.25
2023-02-21T14:29:42.420Z,65.92
2023-02-21T14:30:44.851Z,65.36
2023-02-21T14:31:47.284Z,63.32
2023-02-21T14:32:49.601Z,63.50
2023-02-21T14:33:53.683Z,63.11
2023-02-21T14:34:56.023Z,63.42
2023-02-21T14:35:58.518Z,63.50
2023-02-21T14:37:00.968Z,63.49
2023-02-21T14:38:03.511Z,63.47
2023-02-21T14:39:07.665Z,64.60
2023-02-21T14:40:09.947Z,64.77
2023-02-21T14:41:14.194Z,65.01
2023-02-21T14:42:18.013Z,63.51
2023-02-21T14:43:21.987Z,63.83
2023-02-21T14:44:25.953Z,64.95
2023-02-21T14:45:29.907Z,63.78
2023-02-21T14:46:33.858Z,63.35
2023-02-21T14:47:37.802Z,63.02
2023-02-21T14:48:41.768Z,62.32
2023-02-21T14:49:45.702Z,63.60
2023-02-21T14:50:48.001Z,62.38
2023-02-21T14:51:50.472Z,61.10
2023-02-21T14:52:54.584Z,62.69
2023-02-21T14:53:58.529Z,60.49
2023-02-21T14:55:02.525Z,60.34
2023-02-21T14:56:04.830Z,60.09
2023-02-21T14:57:07.374Z,58.75
2023-02-21T14:58:09.864Z,57.94
2023-02-21T14:59:13.893Z,57.88
2023-02-21T15:00:16.285Z,59.01
2023-02-21T15:01:20.426Z,58.32
2023-02-21T15:02:22.730Z,57.80
2023-02-21T15:03:25.163Z,59.12
2023-02-21T15:04:29.286Z,56.69
2023-02-21T15:05:31.596Z,56.03
2023-02-21T15:06:35.600Z,56.90
2023-02-21T15:07:39.573Z,56.29
2023-02-21T15:08:43.462Z,56.47
2023-02-21T15:09:45.847Z,55.20
2023-02-21T15:10:48.279Z,55.58
2023-02-21T15:11:50.873Z,55.09
2023-02-21T15:12:53.250Z,58.13
2023-02-21T15:13:55.696Z,58.16
2023-02-21T15:14:59.667Z,54.22
2023-02-21T15:16:02.023Z,53.27
2023-02-21T15:17:05.998Z,53.40
2023-02-21T15:18:08.365Z,52.94
2023-02-21T15:19:10.858Z,52.51
2023-02-21T15:20:13.325Z,52.64
2023-02-21T15:21:15.961Z,51.80
2023-02-21T15:22:18.209Z,52.98
2023-02-21T15:23:20.673Z,53.06
2023-02-21T15:24:23.114Z,53.92
2023-02-21T15:25:25.558Z,54.33
2023-02-21T15:26:29.603Z,54.19
2023-02-21T15:27:32.002Z,54.21
2023-02-21T15:28:34.533Z,52.82
2023-02-21T15:29:37.056Z,53.67
2023-02-21T15:30:39.489Z,51.03
2023-02-21T15:31:41.859Z,52.67
2023-02-21T15:32:45.932Z,52.32
2023-02-21T15:33:50.642Z,52.77
2023-02-21T15:34:50.900Z,53.10
2023-02-21T15:35:53.336Z,52.85
2023-02-21T15:36:55.839Z,54.15
2023-02-21T15:37:58.262Z,53.84
2023-02-21T15:39:02.369Z,51.05
2023-02-21T15:40:05.802Z,51.78
2023-02-21T15:41:08.123Z,51.64
2023-02-21T15:42:10.636Z,51.70
2023-02-21T15:43:14.706Z,52.72
2023-02-21T15:44:17.087Z,51.62
2023-02-21T15:45:19.497Z,53.99
2023-02-21T15:46:23.612Z,53.97
2023-02-21T15:47:27.465Z,53.53
2023-02-21T15:48:29.715Z,52.50
2023-02-21T15:49:32.194Z,54.46
2023-02-21T15:50:34.568Z,53.58
2023-02-21T15:51:37.052Z,55.55
2023-02-21T15:52:41.136Z,56.15
2023-02-21T15:53:43.446Z,53.29
2023-02-21T15:54:45.982Z,53.86
2023-02-21T15:55:48.384Z,54.09
2023-02-21T15:56:50.869Z,53.87
2023-02-21T15:57:53.246Z,53.82
2023-02-21T15:58:55.702Z,54.20
2023-02-21T15:59:59.814Z,54.81
2023-02-21T16:01:02.114Z,54.71
2023-02-21T16:02:04.548Z,54.71
2023-02-21T16:03:07.071Z,54.13
2023-02-21T16:04:10.536Z,54.72
2023-02-21T16:05:12.964Z,55.44
2023-02-21T16:06:16.726Z,54.72
2023-02-21T16:07:20.374Z,54.45
2023-02-21T16:08:23.640Z,56.24
2023-02-21T16:09:26.198Z,57.52
2023-02-21T16:10:28.747Z,58.00
2023-02-21T16:11:31.132Z,57.75
2023-02-21T16:12:35.217Z,58.35
2023-02-21T16:13:37.527Z,58.95
2023-02-21T16:14:39.966Z,58.99
2023-02-21T16:15:42.575Z,60.39
2023-02-21T16:16:46.458Z,60.13
2023-02-21T16:17:48.757Z,60.97
2023-02-21T16:18:51.197Z,61.57
2023-02-21T16:19:55.268Z,61.97
2023-02-21T16:20:59.114Z,62.42
2023-02-21T16:22:01.460Z,62.42
2023-02-21T16:23:07.978Z,62.55
2023-02-21T16:24:06.252Z,62.96
2023-02-21T16:25:10.302Z,63.64
2023-02-21T16:26:12.598Z,63.75
2023-02-21T16:27:16.614Z,64.17
2023-02-21T16:28:19.010Z,64.46
2023-02-21T16:29:21.417Z,64.91
2023-02-21T16:38:51.982Z,68.27
2023-02-21T16:39:54.443Z,68.40
2023-02-21T16:49:24.380Z,71.45
2023-02-21T16:50:26.896Z,71.62
2023-02-21T16:51:29.346Z,71.90
2023-02-21T16:52:31.753Z,72.05
2023-02-21T17:02:05.381Z,74.41
2023-02-21T17:11:35.863Z,76.50
2023-02-21T17:12:39.273Z,76.64
2023-02-21T17:22:10.590Z,78.02
2023-02-21T17:23:13.021Z,78.11
2023-02-21T17:32:46.124Z,79.49
2023-02-21T17:42:18.446Z,80.85
2023-02-21T17:43:21.135Z,80.88
2023-02-21T17:52:53.673Z,82.49
2023-02-21T18:02:32.455Z,84.22
2023-02-21T18:12:01.225Z,86.15
2023-02-21T18:21:35.326Z,87.52
2023-02-21T18:31:10.680Z,88.90
2023-02-21T18:40:40.748Z,89.23
2023-02-21T18:50:18.136Z,89.79
2023-02-21T18:59:46.555Z,90.62
2023-02-21T19:09:20.104Z,92.50
2023-02-21T19:18:51.944Z,93.33
2023-02-21T19:28:24.614Z,93.04
2023-02-21T19:37:55.634Z,92.63
2023-02-21T19:47:29.365Z,93.06
2023-02-21T19:57:01.986Z,93.96
2023-02-21T20:06:34.612Z,94.52
2023-02-21T20:16:07.338Z,95.10
2023-02-21T20:25:40.866Z,96.14
2023-02-21T20:35:15.933Z,97.25
2023-02-21T20:44:49.734Z,97.60
2023-02-21T20:45:52.014Z,97.84
2023-02-21T20:46:54.421Z,97.66
2023-02-21T20:56:27.111Z,97.21
2023-02-21T21:06:00.910Z,97.70
2023-02-21T21:15:33.776Z,98.33
2023-02-21T21:25:06.866Z,99.78
2023-02-21T21:34:39.340Z,100.00
2023-02-21T21:44:11.762Z,100.00
2023-02-21T21:53:41.424Z,100.00
2023-02-21T22:03:15.622Z,100.00
2023-02-21T22:12:49.203Z,100.00
2023-02-21T22:22:17.511Z,100.00
2023-02-21T22:31:52.571Z,100.00
2023-02-21T22:41:23.735Z,100.00
2023-02-21T22:50:55.956Z,100.00
2023-02-21T22:51:58.395Z,100.00
2023-02-21T23:01:30.287Z,100.00
2023-02-21T23:11:02.978Z,100.00
2023-02-21T23:20:35.758Z,100.00
2023-02-21T23:30:07.657Z,100.00
2023-02-21T23:39:40.795Z,100.00
2023-02-21T23:49:11.901Z,100.00
2023-02-21T23:58:46.575Z,100.00
